createdAt,value
2022-12-12T00:01:46.293Z,82.30
2022-12-12T00:04:13.070Z,83.40
2022-12-12T00:06:39.940Z,84.10
2022-12-12T00:09:06.637Z,83.60
2022-12-12T00:11:33.436Z,82.90
2022-12-12T00:14:00.230Z,83.40
2022-12-12T00:16:27.055Z,82.80
2022-12-12T00:18:54.878Z,82.20
2022-12-12T00:21:28.423Z,82.00
2022-12-12T00:23:55.790Z,82.00
2022-12-12T00:26:25.641Z,80.80
2022-12-12T00:28:52.545Z,81.30
2022-12-12T00:31:19.642Z,81.60
2022-12-12T00:33:48.676Z,83.50
2022-12-12T00:36:16.205Z,81.60
2022-12-12T00:38:43.001Z,81.90
2022-12-12T00:41:09.905Z,82.30
2022-12-12T00:43:36.672Z,82.20
2022-12-12T00:46:04.631Z,82.20
2022-12-12T00:48:31.685Z,81.40
2022-12-12T00:50:58.676Z,81.30
2022-12-12T00:53:25.559Z,82.00
2022-12-12T00:55:58.369Z,81.50
2022-12-12T00:58:26.194Z,81.30
2022-12-12T01:00:53.546Z,80.40
2022-12-12T01:03:21.302Z,81.30
2022-12-12T01:05:48.318Z,82.20
2022-12-12T01:08:15.079Z,81.40
2022-12-12T01:10:42.189Z,80.30
2022-12-12T01:13:08.941Z,81.20
2022-12-12T01:15:35.588Z,80.40
2022-12-12T01:18:02.216Z,81.20
2022-12-12T01:20:29.061Z,82.10
2022-12-12T01:22:56.712Z,81.00
2022-12-12T01:25:23.964Z,80.40
2022-12-12T01:27:51.148Z,82.30
2022-12-12T01:30:20.051Z,80.60
2022-12-12T01:32:46.795Z,81.60
2022-12-12T01:35:13.665Z,81.50
2022-12-12T01:37:41.441Z,80.30
2022-12-12T01:40:14.625Z,80.60
2022-12-12T01:42:41.489Z,80.70
2022-12-12T01:45:08.743Z,81.40
2022-12-12T01:47:35.416Z,80.30
2022-12-12T01:50:06.570Z,80.30
2022-12-12T01:52:45.583Z,80.40
2022-12-12T01:55:21.206Z,81.20
2022-12-12T01:57:50.005Z,81.80
2022-12-12T02:00:16.929Z,80.80
2022-12-12T02:02:46.074Z,81.70
2022-12-12T02:05:55.809Z,81.80
2022-12-12T02:08:23.523Z,81.00
2022-12-12T02:10:50.382Z,80.70
2022-12-12T02:13:20.613Z,81.90
2022-12-12T02:15:56.537Z,81.60
2022-12-12T02:18:38.378Z,81.20
2022-12-12T02:21:12.752Z,79.50
2022-12-12T02:23:58.331Z,79.20
2022-12-12T02:26:47.022Z,79.10
2022-12-12T02:29:39.755Z,78.70
2022-12-12T02:32:44.208Z,79.20
2022-12-12T02:35:25.228Z,76.40
2022-12-12T02:38:03.928Z,77.60
2022-12-12T02:40:55.200Z,77.10
2022-12-12T02:43:34.029Z,76.10
2022-12-12T02:46:14.664Z,76.30
2022-12-12T02:48:45.442Z,77.00
2022-12-12T02:51:13.835Z,75.20
2022-12-12T02:53:40.771Z,74.80
2022-12-12T02:56:27.246Z,73.90
2022-12-12T02:58:53.974Z,75.50
2022-12-12T03:01:36.484Z,73.00
2022-12-12T03:07:49.650Z,74.40
2022-12-12T03:10:35.186Z,71.90
2022-12-12T03:13:30.509Z,71.60
2022-12-12T03:16:15.053Z,71.70
2022-12-12T03:19:06.021Z,72.60
2022-12-12T03:21:50.645Z,70.90
2022-12-12T03:24:40.234Z,72.00
2022-12-12T03:27:47.511Z,72.30
2022-12-12T03:30:17.207Z,72.10
2022-12-12T03:33:14.419Z,72.80
2022-12-12T03:35:52.973Z,72.10
2022-12-12T03:38:22.800Z,70.80
2022-12-12T03:40:55.422Z,69.60
2022-12-12T03:43:26.879Z,69.60
2022-12-12T03:46:18.523Z,69.60
2022-12-12T03:48:53.362Z,67.70
2022-12-12T03:51:26.340Z,68.40
2022-12-12T03:54:08.083Z,67.70
2022-12-12T03:57:03.233Z,67.10
2022-12-12T03:59:37.048Z,67.00
2022-12-12T04:02:17.136Z,67.40
2022-12-12T04:05:23.151Z,67.80
2022-12-12T04:07:55.210Z,67.00
2022-12-12T04:10:43.096Z,69.50
2022-12-12T04:13:24.277Z,67.10
2022-12-12T04:16:08.237Z,67.70
2022-12-12T04:18:43.771Z,65.90
2022-12-12T04:21:37.832Z,68.20
2022-12-12T04:24:30.079Z,70.80
2022-12-12T04:27:13.880Z,69.10
2022-12-12T04:29:48.118Z,69.90
2022-12-12T04:32:17.884Z,71.00
2022-12-12T04:34:49.543Z,73.20
2022-12-12T04:37:19.179Z,72.70
2022-12-12T04:39:49.414Z,71.90
2022-12-12T04:42:21.510Z,73.50
2022-12-12T04:44:49.550Z,72.80
2022-12-12T04:47:16.795Z,72.30
2022-12-12T04:49:45.721Z,73.60
2022-12-12T04:52:14.154Z,72.50
2022-12-12T04:54:58.847Z,74.10
2022-12-12T04:57:29.295Z,74.10
2022-12-12T04:59:56.184Z,74.60
2022-12-12T05:02:45.108Z,76.00
2022-12-12T05:05:23.171Z,75.10
2022-12-12T05:07:53.607Z,75.90
2022-12-12T05:10:20.498Z,72.50
2022-12-12T05:12:52.917Z,74.30
2022-12-12T05:15:20.868Z,74.50
2022-12-12T05:17:52.293Z,75.50
2022-12-12T05:20:18.963Z,77.50
2022-12-12T05:22:45.655Z,77.10
2022-12-12T05:25:12.555Z,77.20
2022-12-12T05:27:39.543Z,75.20
2022-12-12T05:30:06.828Z,76.90
2022-12-12T05:32:33.578Z,76.80
2022-12-12T05:35:00.235Z,78.50
2022-12-12T05:37:26.892Z,76.70
2022-12-12T05:39:53.569Z,77.30
2022-12-12T05:42:20.276Z,78.50
2022-12-12T05:44:47.275Z,77.60
2022-12-12T05:47:13.965Z,78.30
2022-12-12T05:49:40.665Z,77.90
2022-12-12T05:52:07.404Z,78.00
2022-12-12T05:54:34.139Z,79.20
2022-12-12T05:57:00.951Z,79.00
2022-12-12T05:59:27.739Z,78.70
2022-12-12T06:01:54.516Z,79.30
2022-12-12T06:04:21.197Z,79.00
2022-12-12T06:06:48.079Z,79.50
2022-12-12T06:09:15.762Z,78.80
2022-12-12T06:11:42.523Z,78.80
2022-12-12T06:14:09.248Z,78.80
2022-12-12T06:16:36.544Z,79.30
2022-12-12T06:19:03.476Z,79.10
2022-12-12T06:21:30.139Z,79.90
2022-12-12T06:23:57.029Z,79.50
2022-12-12T06:26:23.794Z,79.90
2022-12-12T06:28:50.437Z,80.10
2022-12-12T06:31:17.659Z,79.40
2022-12-12T06:33:44.854Z,79.40
2022-12-12T06:36:14.906Z,80.00
2022-12-12T06:38:41.563Z,80.80
2022-12-12T06:41:10.563Z,80.20
2022-12-12T06:43:37.424Z,80.60
2022-12-12T06:46:05.885Z,79.60
2022-12-12T06:48:33.648Z,78.60
2022-12-12T06:51:05.453Z,79.70
2022-12-12T06:53:32.346Z,79.00
2022-12-12T06:55:59.127Z,79.00
2022-12-12T06:58:25.807Z,78.60
2022-12-12T07:00:53.454Z,78.40
2022-12-12T07:03:20.283Z,79.50
2022-12-12T08:14:13.465Z,80.90
2022-12-12T08:16:41.635Z,81.30
2022-12-12T08:19:08.966Z,81.00
2022-12-12T08:21:36.441Z,80.00
2022-12-12T08:24:04.046Z,81.10
2022-12-12T08:26:32.752Z,81.60
2022-12-12T08:29:01.931Z,83.30
2022-12-12T08:31:29.868Z,82.40
2022-12-12T08:33:58.090Z,81.80
2022-12-12T08:36:30.543Z,81.50
2022-12-12T08:39:06.735Z,81.40
2022-12-12T08:41:39.976Z,81.00
2022-12-12T08:44:08.692Z,81.90
2022-12-12T08:46:36.081Z,82.80
2022-12-12T08:49:03.653Z,82.70
2022-12-12T08:51:31.052Z,82.90
2022-12-12T08:53:58.497Z,82.70
2022-12-12T08:56:26.336Z,81.70
2022-12-12T08:58:54.257Z,82.30
2022-12-12T09:01:26.448Z,81.70
2022-12-12T09:03:57.943Z,81.70
2022-12-12T09:06:26.536Z,82.30
2022-12-12T09:08:54.102Z,83.60
2022-12-12T09:11:21.655Z,82.10
2022-12-12T09:13:48.994Z,82.50
2022-12-12T09:16:19.163Z,82.20
2022-12-12T09:18:49.431Z,82.40
2022-12-12T09:21:18.596Z,84.10
2022-12-12T09:23:46.585Z,83.80
2022-12-12T09:26:14.134Z,86.10
2022-12-12T09:28:41.663Z,86.30
2022-12-12T09:31:12.850Z,85.80
2022-12-12T09:33:41.634Z,84.40
2022-12-12T09:36:09.618Z,84.00
2022-12-12T09:38:37.407Z,84.10
2022-12-12T09:41:41.119Z,83.20
2022-12-12T09:44:12.666Z,83.70
2022-12-12T09:46:48.560Z,83.70
2022-12-12T09:49:16.572Z,84.80
2022-12-12T09:51:46.403Z,82.40
2022-12-12T09:54:20.538Z,83.20
2022-12-12T09:56:54.551Z,84.10
2022-12-12T09:59:41.886Z,83.00
2022-12-12T10:02:49.885Z,83.70
2022-12-12T10:05:39.298Z,83.10
2022-12-12T10:08:24.742Z,85.10
2022-12-12T10:10:56.119Z,83.10
2022-12-12T10:13:26.229Z,83.60
2022-12-12T10:15:57.688Z,83.30
2022-12-12T10:18:31.300Z,83.10
2022-12-12T10:21:01.641Z,83.80
2022-12-12T10:23:53.068Z,81.90
2022-12-12T10:26:28.612Z,82.50
2022-12-12T10:29:19.185Z,83.80
2022-12-12T10:31:59.856Z,81.20
2022-12-12T10:34:52.346Z,82.10
2022-12-12T10:37:48.315Z,80.80
2022-12-12T10:40:15.136Z,80.10
2022-12-12T10:42:59.769Z,79.60
2022-12-12T10:45:49.637Z,79.50
2022-12-12T10:48:16.394Z,81.20
2022-12-12T10:50:46.165Z,79.70
2022-12-12T10:53:13.025Z,78.50
2022-12-12T10:55:39.721Z,80.00
2022-12-12T10:58:07.039Z,75.10
2022-12-12T11:00:39.637Z,77.60
2022-12-12T11:03:21.544Z,77.50
2022-12-12T11:05:49.445Z,77.60
2022-12-12T11:08:29.977Z,79.10
2022-12-12T11:11:11.041Z,76.80
2022-12-12T11:13:55.222Z,76.30
2022-12-12T11:16:25.044Z,74.50
2022-12-12T11:19:04.396Z,73.20
2022-12-12T11:21:36.407Z,73.40
2022-12-12T11:24:19.877Z,70.50
2022-12-12T11:26:59.990Z,71.70
2022-12-12T11:29:45.885Z,72.50
2022-12-12T11:32:38.113Z,72.50
2022-12-12T11:35:08.292Z,74.20
2022-12-12T11:37:45.149Z,72.20
2022-12-12T11:40:33.444Z,74.90
2022-12-12T11:43:25.332Z,77.10
2022-12-12T11:46:25.828Z,75.40
2022-12-12T11:48:52.642Z,78.00
2022-12-12T11:51:41.562Z,79.50
2022-12-12T11:54:13.927Z,80.30
2022-12-12T11:57:12.787Z,81.00
2022-12-12T12:00:11.758Z,82.80
2022-12-12T12:02:47.541Z,84.00
2022-12-12T12:05:20.260Z,83.90
2022-12-12T12:08:03.049Z,83.80
2022-12-12T12:10:52.289Z,83.70
2022-12-12T12:13:44.983Z,83.50
2022-12-12T12:16:40.858Z,82.60
2022-12-12T12:19:29.919Z,82.30
2022-12-12T12:22:40.830Z,83.10
2022-12-12T12:25:41.225Z,84.10
2022-12-12T12:28:26.284Z,84.00
2022-12-12T12:31:43.739Z,83.00
2022-12-12T12:34:25.440Z,82.00
2022-12-12T12:37:22.301Z,81.70
2022-12-12T12:40:25.036Z,81.30
2022-12-12T12:43:09.780Z,80.20
2022-12-12T12:45:53.427Z,79.70
2022-12-12T12:48:23.230Z,80.60
2022-12-12T12:51:17.926Z,78.40
2022-12-12T12:53:50.714Z,79.40
2022-12-12T12:56:27.271Z,79.10
2022-12-12T12:59:00.261Z,79.40
2022-12-12T13:01:39.174Z,79.50
2022-12-12T13:04:11.554Z,78.20
2022-12-12T13:06:49.688Z,77.40
2022-12-12T13:09:37.712Z,77.20
2022-12-12T13:12:25.874Z,78.10
2022-12-12T13:15:03.133Z,77.10
2022-12-12T13:17:58.873Z,76.70
2022-12-12T13:20:26.391Z,75.90
2022-12-12T13:23:18.537Z,75.30
2022-12-12T13:25:56.673Z,75.20
2022-12-12T13:28:29.202Z,75.70
2022-12-12T13:31:08.071Z,75.50
2022-12-12T13:33:39.335Z,74.70
2022-12-12T13:36:30.345Z,74.70
2022-12-12T13:39:00.067Z,74.80
2022-12-12T13:41:27.299Z,75.80
2022-12-12T13:43:58.693Z,76.20
2022-12-12T13:46:27.253Z,74.90
2022-12-12T13:48:57.203Z,75.70
2022-12-12T13:51:34.579Z,75.30
2022-12-12T13:54:12.219Z,76.00
2022-12-12T13:56:53.369Z,74.90
2022-12-12T13:59:22.953Z,77.20
2022-12-12T14:01:51.148Z,76.80
2022-12-12T14:04:39.749Z,76.00
2022-12-12T14:07:12.711Z,76.20
2022-12-12T14:09:50.623Z,76.20
2022-12-12T14:12:33.437Z,75.70
2022-12-12T14:15:02.075Z,72.60
2022-12-12T14:17:35.446Z,74.90
2022-12-12T14:20:07.901Z,75.20
2022-12-12T14:22:37.569Z,73.60
2022-12-12T14:25:08.601Z,72.50
2022-12-12T14:27:50.379Z,73.50
2022-12-12T14:30:18.126Z,72.30
2022-12-12T14:33:02.495Z,70.80
2022-12-12T14:35:56.697Z,69.30
2022-12-12T14:38:32.495Z,70.50
2022-12-12T14:41:05.761Z,72.80
2022-12-12T14:43:40.461Z,73.90
2022-12-12T14:46:16.297Z,74.00
2022-12-12T14:48:44.007Z,74.00
2022-12-12T14:51:24.495Z,75.00
2022-12-12T14:53:56.340Z,74.80
2022-12-12T14:56:30.328Z,74.70
2022-12-12T14:59:09.024Z,75.00
2022-12-12T15:01:40.822Z,74.70
2022-12-12T15:04:10.373Z,74.50
2022-12-12T15:06:38.298Z,71.90
2022-12-12T15:09:22.523Z,72.20
2022-12-12T15:11:50.277Z,71.00
2022-12-12T15:14:23.427Z,72.70
2022-12-12T15:17:17.494Z,68.70
2022-12-12T15:19:49.287Z,71.10
2022-12-12T15:22:23.259Z,70.10
2022-12-12T15:24:50.440Z,71.10
2022-12-12T15:27:37.313Z,71.60
2022-12-12T15:30:21.938Z,72.10
2022-12-12T15:32:48.858Z,74.10
2022-12-12T15:35:20.019Z,72.80
2022-12-12T15:38:01.537Z,73.20
2022-12-12T15:40:35.560Z,73.10
2022-12-12T15:43:06.630Z,74.20
2022-12-12T15:45:34.723Z,75.00
2022-12-12T15:48:02.617Z,72.80
2022-12-12T15:50:57.140Z,73.00
2022-12-12T15:53:34.031Z,73.20
2022-12-12T15:56:16.082Z,72.60
2022-12-12T15:58:45.357Z,72.20
2022-12-12T16:01:21.027Z,74.40
2022-12-12T16:04:04.600Z,72.00
2022-12-12T16:06:34.764Z,72.10
2022-12-12T16:09:08.120Z,70.40
2022-12-12T16:11:47.957Z,69.60
2022-12-12T16:14:40.832Z,72.20
2022-12-12T16:17:13.561Z,72.60
2022-12-12T16:19:54.153Z,71.10
2022-12-12T16:22:33.541Z,72.90
2022-12-12T16:25:15.747Z,69.80
2022-12-12T16:27:42.919Z,69.30
2022-12-12T16:30:14.364Z,68.60
2022-12-12T16:32:42.381Z,68.40
2022-12-12T16:35:17.984Z,67.80
2022-12-12T16:37:45.563Z,70.10
2022-12-12T16:40:17.291Z,67.20
2022-12-12T16:42:47.489Z,68.30
2022-12-12T16:45:14.395Z,68.50
2022-12-12T16:47:41.078Z,67.20
2022-12-12T16:50:08.285Z,67.60
2022-12-12T16:52:35.045Z,66.80
2022-12-12T16:55:01.806Z,66.70
2022-12-12T16:57:28.430Z,67.20
2022-12-12T16:59:55.182Z,66.30
2022-12-12T17:02:23.835Z,66.10
2022-12-12T17:04:51.485Z,65.80
2022-12-12T17:07:18.240Z,65.20
2022-12-12T17:09:45.176Z,64.70
2022-12-12T17:12:13.198Z,65.10
2022-12-12T17:14:40.303Z,65.20
2022-12-12T17:17:07.137Z,67.10
2022-12-12T17:19:33.971Z,65.20
2022-12-12T17:22:00.857Z,65.30
2022-12-12T17:24:28.358Z,65.70
2022-12-12T17:26:55.217Z,65.10
2022-12-12T17:29:22.620Z,64.90
2022-12-12T17:31:49.478Z,65.10
2022-12-12T17:34:16.501Z,66.00
2022-12-12T17:36:43.350Z,64.90
2022-12-12T17:39:11.049Z,64.70
2022-12-12T17:41:37.852Z,63.70
2022-12-12T17:44:04.670Z,63.10
2022-12-12T17:46:31.662Z,63.40
2022-12-12T17:48:58.994Z,66.00
2022-12-12T17:51:25.842Z,64.80
2022-12-12T17:53:52.931Z,64.30
2022-12-12T17:56:22.767Z,64.30
2022-12-12T17:58:50.190Z,64.60
2022-12-12T18:01:21.824Z,62.10
2022-12-12T18:03:49.186Z,61.00
2022-12-12T18:06:17.446Z,61.30
2022-12-12T18:08:44.642Z,63.00
2022-12-12T18:11:16.788Z,62.20
2022-12-12T18:13:44.014Z,61.80
2022-12-12T18:16:12.952Z,61.40
2022-12-12T18:18:40.467Z,62.80
2022-12-12T18:21:23.574Z,62.00
2022-12-12T18:23:59.942Z,62.50
2022-12-12T18:26:28.569Z,60.20
2022-12-12T18:29:01.768Z,62.50
2022-12-12T18:31:29.506Z,62.50
2022-12-12T18:33:57.323Z,62.50
2022-12-12T18:36:29.347Z,62.30
2022-12-12T18:38:57.189Z,60.90
2022-12-12T18:41:24.825Z,62.60
2022-12-12T18:43:51.495Z,60.70
2022-12-12T18:46:20.662Z,61.50
2022-12-12T18:48:48.463Z,61.60
2022-12-12T18:51:17.685Z,61.30
2022-12-12T18:53:45.262Z,62.00
2022-12-12T18:56:18.888Z,62.40
2022-12-12T18:58:46.012Z,61.40
2022-12-12T19:01:16.973Z,59.70
2022-12-12T19:03:45.088Z,59.30
2022-12-12T19:06:15.010Z,61.80
2022-12-12T19:08:42.201Z,59.90
2022-12-12T19:11:09.814Z,60.90
2022-12-12T19:13:37.109Z,60.20
2022-12-12T19:16:07.750Z,61.10
2022-12-12T19:18:35.450Z,58.70
2022-12-12T19:21:14.784Z,59.30
2022-12-12T19:23:42.064Z,59.60
2022-12-12T19:26:17.136Z,58.70
2022-12-12T19:28:44.321Z,59.80
2022-12-12T19:31:16.235Z,60.20
2022-12-12T19:33:44.323Z,60.10
2022-12-12T19:36:21.397Z,61.90
2022-12-12T19:38:49.016Z,60.00
2022-12-12T19:41:18.244Z,59.60
2022-12-12T19:43:46.415Z,59.30
2022-12-12T19:46:23.934Z,59.90
2022-12-12T19:48:58.929Z,59.00
2022-12-12T19:51:26.713Z,58.40
2022-12-12T19:53:56.425Z,59.70
2022-12-12T19:56:32.184Z,59.40
2022-12-12T19:58:59.425Z,56.40
2022-12-12T20:01:28.724Z,59.10
2022-12-12T20:03:58.048Z,59.30
2022-12-12T20:06:25.679Z,59.20
2022-12-12T20:08:52.656Z,58.70
2022-12-12T20:11:22.458Z,56.50
2022-12-12T20:13:54.507Z,57.70
2022-12-12T20:16:23.702Z,58.10
2022-12-12T20:18:50.481Z,58.20
2022-12-12T20:21:43.499Z,55.10
2022-12-12T20:24:06.180Z,55.60
2022-12-12T20:26:33.062Z,54.50
2022-12-12T20:29:00.529Z,55.80
2022-12-12T20:31:30.089Z,56.20
2022-12-12T20:33:58.537Z,56.00
2022-12-12T20:36:30.673Z,55.40
2022-12-12T20:38:58.777Z,56.20
2022-12-12T20:41:31.264Z,55.00
2022-12-12T20:43:59.145Z,56.50
2022-12-12T20:46:31.250Z,58.20
2022-12-12T20:49:00.304Z,55.70
2022-12-12T20:51:54.863Z,54.30
2022-12-12T20:54:19.979Z,53.20
2022-12-12T20:56:46.928Z,53.10
2022-12-12T20:59:14.427Z,52.20
2022-12-12T21:01:41.534Z,52.30
2022-12-12T21:04:09.580Z,55.70
2022-12-12T21:06:39.429Z,52.40
2022-12-12T21:09:08.642Z,51.70
2022-12-12T21:11:36.618Z,52.50
2022-12-12T21:14:03.566Z,53.70
2022-12-12T21:16:34.857Z,51.30
2022-12-12T21:19:07.173Z,51.30
2022-12-12T21:21:34.306Z,50.00
2022-12-12T21:24:01.912Z,51.20
2022-12-12T21:26:31.169Z,55.00
2022-12-12T21:28:58.837Z,51.60
2022-12-12T21:31:30.999Z,53.40
2022-12-12T21:33:58.272Z,50.40
2022-12-12T21:36:26.015Z,51.30
2022-12-12T21:38:56.028Z,52.00
2022-12-12T21:41:23.795Z,51.80
2022-12-12T21:43:50.753Z,52.20
2022-12-12T21:46:22.698Z,51.50
2022-12-12T21:49:10.398Z,53.70
2022-12-12T21:51:37.658Z,52.00
2022-12-12T21:54:05.019Z,53.10
2022-12-12T21:56:32.052Z,52.10
2022-12-12T21:58:59.306Z,53.40
2022-12-12T22:01:26.873Z,55.30
2022-12-12T22:03:53.914Z,53.50
2022-12-12T22:06:22.987Z,50.60
2022-12-12T22:08:49.947Z,52.00
2022-12-12T22:11:33.892Z,52.20
2022-12-12T22:14:05.273Z,50.80
2022-12-12T22:16:35.583Z,51.90
2022-12-12T22:19:06.022Z,50.80
2022-12-12T22:21:34.264Z,52.80
2022-12-12T22:24:01.669Z,50.90
2022-12-12T22:26:30.849Z,50.70
2022-12-12T22:28:59.858Z,50.70
2022-12-12T22:31:29.480Z,49.40
2022-12-12T22:34:01.951Z,50.40
2022-12-12T22:36:30.777Z,51.50
2022-12-12T22:38:58.536Z,49.10
2022-12-12T22:41:26.400Z,49.80
2022-12-12T22:44:14.716Z,49.10
2022-12-12T22:46:44.302Z,49.20
2022-12-12T22:49:13.613Z,48.10
2022-12-12T22:51:40.808Z,48.20
2022-12-12T22:54:07.723Z,49.40
2022-12-12T22:56:35.998Z,49.90
2022-12-12T22:59:03.824Z,48.60
2022-12-12T23:01:31.153Z,48.60
2022-12-12T23:03:58.270Z,48.20
2022-12-12T23:06:34.047Z,48.50
2022-12-12T23:09:11.253Z,47.00
2022-12-12T23:11:38.102Z,47.10
2022-12-12T23:14:08.149Z,45.90
2022-12-12T23:16:35.656Z,46.20
2022-12-12T23:19:07.411Z,47.80
2022-12-12T23:21:36.183Z,47.30
2022-12-12T23:24:03.982Z,48.30
2022-12-12T23:26:31.800Z,47.50
2022-12-12T23:28:59.837Z,47.90
2022-12-12T23:31:30.477Z,47.00
2022-12-12T23:34:03.992Z,46.00
2022-12-12T23:36:31.180Z,47.30
2022-12-12T23:38:59.904Z,47.60
2022-12-12T23:41:27.472Z,47.20
2022-12-12T23:43:54.847Z,47.20
2022-12-12T23:46:34.233Z,47.20
2022-12-12T23:49:06.963Z,48.10
2022-12-12T23:51:42.497Z,46.70
2022-12-12T23:54:17.923Z,46.70
2022-12-12T23:56:45.106Z,45.20
2022-12-12T23:59:17.593Z,47.40
